sensor_id;sensor_type;location;lat;lon;timestamp;pressure;altitude;pressure_sealevel;temperature;humidity
17260;BME280;8746;49.230;9.220;2022-11-11T00:02:07;101490.28;;;3.82;100.00
17260;BME280;8746;49.230;9.220;2022-11-11T00:04:32;101480.69;;;3.81;100.00
17260;BME280;8746;49.230;9.220;2022-11-11T00:06:57;101477.16;;;3.76;100.00
17260;BME280;8746;49.230;9.220;2022-11-11T00:09:23;101482.34;;;3.74;100.00
17260;BME280;8746;49.230;9.220;2022-11-11T00:11:48;101479.72;;;3.73;100.00
17260;BME280;8746;49.230;9.220;2022-11-11T00:14:13;101475.41;;;3.76;100.00
17260;BME280;8746;49.230;9.220;2022-11-11T00:16:39;101478.03;;;3.78;100.00
17260;BME280;8746;49.230;9.220;2022-11-11T00:19:23;101469.34;;;3.79;100.00
17260;BME280;8746;49.230;9.220;2022-11-11T00:22:19;101478.03;;;3.78;100.00
17260;BME280;8746;49.230;9.220;2022-11-11T00:25:03;101484.91;;;3.69;100.00
17260;BME280;8746;49.230;9.220;2022-11-11T00:27:32;101486.63;;;3.67;100.00
17260;BME280;8746;49.230;9.220;2022-11-11T00:29:58;101477.03;;;3.66;100.00
17260;BME280;8746;49.230;9.220;2022-11-11T00:32:23;101484.00;;;3.66;100.00
17260;BME280;8746;49.230;9.220;2022-11-11T00:34:51;101486.75;;;3.78;100.00
17260;BME280;8746;49.230;9.220;2022-11-11T00:37:36;101493.69;;;3.78;100.00
17260;BME280;8746;49.230;9.220;2022-11-11T00:40:01;101489.38;;;3.80;100.00
17260;BME280;8746;49.230;9.220;2022-11-11T00:42:29;101497.34;;;3.89;100.00
17260;BME280;8746;49.230;9.220;2022-11-11T00:44:55;101487.63;;;3.79;100.00
17260;BME280;8746;49.230;9.220;2022-11-11T00:47:20;101492.78;;;3.73;100.00
17260;BME280;8746;49.230;9.220;2022-11-11T00:50:06;101484.94;;;3.73;100.00
17260;BME280;8746;49.230;9.220;2022-11-11T00:52:52;101499.69;;;3.71;100.00
17260;BME280;8746;49.230;9.220;2022-11-11T00:55:18;101499.69;;;3.71;100.00
17260;BME280;8746;49.230;9.220;2022-11-11T00:57:43;101507.44;;;3.61;100.00
17260;BME280;8746;49.230;9.220;2022-11-11T01:00:09;101512.66;;;3.61;100.00
17260;BME280;8746;49.230;9.220;2022-11-11T01:02:34;101505.81;;;3.73;100.00
17260;BME280;8746;49.230;9.220;2022-11-11T01:05:00;101510.13;;;3.69;100.00
17260;BME280;8746;49.230;9.220;2022-11-11T01:07:25;101505.72;;;3.63;100.00
17260;BME280;8746;49.230;9.220;2022-11-11T01:09:51;101491.88;;;3.71;100.00
17260;BME280;8746;49.230;9.220;2022-11-11T01:12:16;101489.22;;;3.66;100.00
17260;BME280;8746;49.230;9.220;2022-11-11T01:14:42;101508.34;;;3.63;100.00
17260;BME280;8746;49.230;9.220;2022-11-11T01:17:07;101511.03;;;3.73;100.00
17260;BME280;8746;49.230;9.220;2022-11-11T01:19:34;101511.09;;;3.76;100.00
17260;BME280;8746;49.230;9.220;2022-11-11T01:21:59;101522.22;;;3.62;100.00
17260;BME280;8746;49.230;9.220;2022-11-11T01:24:24;101517.66;;;3.47;100.00
17260;BME280;8746;49.230;9.220;2022-11-11T01:26:50;101514.97;;;3.41;100.00
17260;BME280;8746;49.230;9.220;2022-11-11T01:29:15;101522.00;;;3.45;100.00
17260;BME280;8746;49.230;9.220;2022-11-11T01:31:40;101526.38;;;3.49;100.00
17260;BME280;8746;49.230;9.220;2022-11-11T01:34:06;101520.34;;;3.53;100.00
17260;BME280;8746;49.230;9.220;2022-11-11T01:36:31;101523.91;;;3.59;100.00
17260;BME280;8746;49.230;9.220;2022-11-11T01:38:58;101521.38;;;3.63;100.00
17260;BME280;8746;49.230;9.220;2022-11-11T01:41:34;101518.78;;;3.66;100.00
17260;BME280;8746;49.230;9.220;2022-11-11T01:47:00;101523.09;;;3.61;100.00
17260;BME280;8746;49.230;9.220;2022-11-11T01:49:52;101519.47;;;3.51;100.00
17260;BME280;8746;49.230;9.220;2022-11-11T01:52:31;101521.25;;;3.56;100.00
17260;BME280;8746;49.230;9.220;2022-11-11T01:55:03;101524.03;;;3.66;100.00
17260;BME280;8746;49.230;9.220;2022-11-11T01:57:38;101534.50;;;3.69;100.00
17260;BME280;8746;49.230;9.220;2022-11-11T02:00:08;101535.38;;;3.68;100.00
17260;BME280;8746;49.230;9.220;2022-11-11T02:02:40;101530.22;;;3.75;100.00
17260;BME280;8746;49.230;9.220;2022-11-11T02:05:10;101523.22;;;3.72;100.00
17260;BME280;8746;49.230;9.220;2022-11-11T02:07:56;101523.16;;;3.67;100.00
17260;BME280;8746;49.230;9.220;2022-11-11T02:10:24;101525.78;;;3.67;100.00
17260;BME280;8746;49.230;9.220;2022-11-11T02:12:51;101520.63;;;3.72;100.00
17260;BME280;8746;49.230;9.220;2022-11-11T02:15:36;101518.03;;;3.75;100.00
17260;BME280;8746;49.230;9.220;2022-11-11T02:18:02;101517.06;;;3.67;100.00
17260;BME280;8746;49.230;9.220;2022-11-11T02:20:33;101522.19;;;3.61;100.00
17260;BME280;8746;49.230;9.220;2022-11-11T02:23:10;101513.25;;;3.42;100.00
17260;BME280;8746;49.230;9.220;2022-11-11T02:25:39;101515.25;;;3.61;100.00
17260;BME280;8746;49.230;9.220;2022-11-11T02:28:07;101523.09;;;3.61;100.00
17260;BME280;8746;49.230;9.220;2022-11-11T02:30:33;101519.63;;;3.62;100.00
17260;BME280;8746;49.230;9.220;2022-11-11T02:32:59;101521.47;;;3.69;100.00
17260;BME280;8746;49.230;9.220;2022-11-11T02:37:54;101514.56;;;3.73;100.00
17260;BME280;8746;49.230;9.220;2022-11-11T02:40:46;101518.88;;;3.74;100.00
17260;BME280;8746;49.230;9.220;2022-11-11T02:43:31;101517.88;;;3.64;100.00
17260;BME280;8746;49.230;9.220;2022-11-11T02:45:58;101519.47;;;3.51;100.00
17260;BME280;8746;49.230;9.220;2022-11-11T02:48:25;101517.63;;;3.46;100.00
17260;BME280;8746;49.230;9.220;2022-11-11T02:50:50;101514.34;;;3.59;100.00
17260;BME280;8746;49.230;9.220;2022-11-11T02:53:16;101506.44;;;3.53;100.00
17260;BME280;8746;49.230;9.220;2022-11-11T02:55:41;101511.56;;;3.45;100.00
17260;BME280;8746;49.230;9.220;2022-11-11T02:58:07;101508.91;;;3.44;100.00
17260;BME280;8746;49.230;9.220;2022-11-11T03:00:33;101514.25;;;3.50;100.00
17260;BME280;8746;49.230;9.220;2022-11-11T03:02:58;101510.75;;;3.51;100.00
17260;BME280;8746;49.230;9.220;2022-11-11T03:05:23;101506.44;;;3.53;100.00
17260;BME280;8746;49.230;9.220;2022-11-11T03:07:49;101507.28;;;3.53;100.00
17260;BME280;8746;49.230;9.220;2022-11-11T03:10:15;101506.38;;;3.48;100.00
17260;BME280;8746;49.230;9.220;2022-11-11T03:12:40;101514.31;;;3.56;100.00
17260;BME280;8746;49.230;9.220;2022-11-11T03:15:06;101513.44;;;3.57;100.00
17260;BME280;8746;49.230;9.220;2022-11-11T03:17:31;101504.53;;;3.41;100.00
17260;BME280;8746;49.230;9.220;2022-11-11T03:20:12;101512.38;;;3.43;100.00
17260;BME280;8746;49.230;9.220;2022-11-11T03:23:07;101521.09;;;3.43;100.00
17260;BME280;8746;49.230;9.220;2022-11-11T03:25:33;101523.75;;;3.48;100.00
17260;BME280;8746;49.230;9.220;2022-11-11T03:28:07;101527.97;;;3.36;100.00
17260;BME280;8746;49.230;9.220;2022-11-11T03:30:33;101534.03;;;3.37;100.00
17260;BME280;8746;49.230;9.220;2022-11-11T03:32:59;101534.97;;;3.41;100.00
17260;BME280;8746;49.230;9.220;2022-11-11T03:35:25;101541.03;;;3.40;100.00
17260;BME280;8746;49.230;9.220;2022-11-11T03:37:50;101530.59;;;3.38;100.00
17260;BME280;8746;49.230;9.220;2022-11-11T03:40:34;101529.66;;;3.34;100.00
17260;BME280;8746;49.230;9.220;2022-11-11T03:43:00;101539.19;;;3.32;100.00
17260;BME280;8746;49.230;9.220;2022-11-11T03:45:25;101544.22;;;3.20;100.00
17260;BME280;8746;49.230;9.220;2022-11-11T03:47:50;101537.28;;;3.22;100.00
17260;BME280;8746;49.230;9.220;2022-11-11T03:50:16;101532.56;;;2.99;100.00
17260;BME280;8746;49.230;9.220;2022-11-11T03:52:42;101525.59;;;2.97;100.00
17260;BME280;8746;49.230;9.220;2022-11-11T03:55:08;101530.69;;;2.89;100.00
17260;BME280;8746;49.230;9.220;2022-11-11T03:57:33;101532.59;;;3.01;100.00
17260;BME280;8746;49.230;9.220;2022-11-11T03:59:59;101537.97;;;3.10;100.00
17260;BME280;8746;49.230;9.220;2022-11-11T04:02:24;101546.56;;;3.04;100.00
17260;BME280;8746;49.230;9.220;2022-11-11T04:05:09;101555.28;;;3.07;100.00
17260;BME280;8746;49.230;9.220;2022-11-11T04:07:53;101546.56;;;3.04;100.00
17260;BME280;8746;49.230;9.220;2022-11-11T04:10:36;101548.31;;;3.04;100.00
17260;BME280;8746;49.230;9.220;2022-11-11T04:13:03;101551.81;;;3.06;100.00
17260;BME280;8746;49.230;9.220;2022-11-11T04:15:48;101554.53;;;3.12;100.00
17260;BME280;8746;49.230;9.220;2022-11-11T04:18:35;101556.13;;;3.05;100.00
17260;BME280;8746;49.230;9.220;2022-11-11T04:21:19;101560.50;;;3.07;100.00
17260;BME280;8746;49.230;9.220;2022-11-11T04:24:04;101558.81;;;3.10;100.00
17260;BME280;8746;49.230;9.220;2022-11-11T04:26:50;101565.06;;;3.18;100.00
17260;BME280;8746;49.230;9.220;2022-11-11T04:29:15;101568.44;;;3.13;100.00
17260;BME280;8746;49.230;9.220;2022-11-11T04:32:17;101570.81;;;2.97;100.00
17260;BME280;8746;49.230;9.220;2022-11-11T04:35:08;101575.13;;;2.97;100.00
17260;BME280;8746;49.230;9.220;2022-11-11T04:37:36;101577.91;;;3.08;100.00
17260;BME280;8746;49.230;9.220;2022-11-11T04:40:02;101578.63;;;2.99;100.00
17260;BME280;8746;49.230;9.220;2022-11-11T04:42:46;101584.81;;;3.05;100.00
17260;BME280;8746;49.230;9.220;2022-11-11T04:45:12;101581.25;;;3.00;100.00
17260;BME280;8746;49.230;9.220;2022-11-11T04:48:03;101586.50;;;3.02;100.00
17260;BME280;8746;49.230;9.220;2022-11-11T04:52:56;101595.03;;;2.92;100.00
17260;BME280;8746;49.230;9.220;2022-11-11T04:55:22;101585.47;;;2.92;100.00
17260;BME280;8746;49.230;9.220;2022-11-11T04:58:07;101581.69;;;2.75;100.00
17260;BME280;8746;49.230;9.220;2022-11-11T05:00:32;101586.03;;;2.74;100.00
17260;BME280;8746;49.230;9.220;2022-11-11T05:02:58;101587.81;;;2.77;100.00
17260;BME280;8746;49.230;9.220;2022-11-11T05:08:27;101597.25;;;2.71;100.00
17260;BME280;8746;49.230;9.220;2022-11-11T05:11:12;101605.19;;;2.78;100.00
17260;BME280;8746;49.230;9.220;2022-11-11T05:13:37;101590.53;;;2.84;100.00
17260;BME280;8746;49.230;9.220;2022-11-11T05:16:24;101602.75;;;2.87;100.00
17260;BME280;8746;49.230;9.220;2022-11-11T05:19:10;101601.63;;;2.72;100.00
17260;BME280;8746;49.230;9.220;2022-11-11T05:21:57;101607.66;;;2.71;100.00
17260;BME280;8746;49.230;9.220;2022-11-11T05:24:24;101613.28;;;2.93;100.00
17260;BME280;8746;49.230;9.220;2022-11-11T05:27:09;101624.56;;;2.92;100.00
17260;BME280;8746;49.230;9.220;2022-11-11T05:29:34;101628.72;;;2.82;100.00
17260;BME280;8746;49.230;9.220;2022-11-11T05:32:00;101626.22;;;2.87;100.00
17260;BME280;8746;49.230;9.220;2022-11-11T05:34:26;101632.97;;;2.77;100.00
17260;BME280;8746;49.230;9.220;2022-11-11T05:36:51;101633.72;;;2.71;100.00
17260;BME280;8746;49.230;9.220;2022-11-11T05:39:17;101636.28;;;2.67;100.00
17260;BME280;8746;49.230;9.220;2022-11-11T05:41:42;101632.84;;;2.69;100.00
17260;BME280;8746;49.230;9.220;2022-11-11T05:44:08;101629.31;;;2.67;100.00
17260;BME280;8746;49.230;9.220;2022-11-11T05:46:33;101621.50;;;2.67;100.00
17260;BME280;8746;49.230;9.220;2022-11-11T05:48:58;101624.81;;;2.59;100.00
17260;BME280;8746;49.230;9.220;2022-11-11T05:51:39;101628.34;;;2.62;100.00
17260;BME280;8746;49.230;9.220;2022-11-11T05:54:04;101631.81;;;2.61;100.00
17260;BME280;8746;49.230;9.220;2022-11-11T05:56:30;101631.72;;;2.58;100.00
17260;BME280;8746;49.230;9.220;2022-11-11T05:58:55;101636.09;;;2.59;100.00
17260;BME280;8746;49.230;9.220;2022-11-11T06:01:21;101643.16;;;2.63;100.00
17260;BME280;8746;49.230;9.220;2022-11-11T06:03:46;101644.84;;;2.61;100.00
17260;BME280;8746;49.230;9.220;2022-11-11T06:06:12;101651.47;;;2.47;100.00
17260;BME280;8746;49.230;9.220;2022-11-11T06:08:37;101657.66;;;2.52;100.00
17260;BME280;8746;49.230;9.220;2022-11-11T06:11:03;101655.06;;;2.52;100.00
17260;BME280;8746;49.230;9.220;2022-11-11T06:13:28;101657.66;;;2.52;100.00
17260;BME280;8746;49.230;9.220;2022-11-11T06:15:55;101649.94;;;2.56;100.00
17260;BME280;8746;49.230;9.220;2022-11-11T06:18:21;101649.81;;;2.49;100.00
17260;BME280;8746;49.230;9.220;2022-11-11T06:20:52;101661.94;;;2.48;100.00
17260;BME280;8746;49.230;9.220;2022-11-11T06:23:17;101662.81;;;2.47;100.00
17260;BME280;8746;49.230;9.220;2022-11-11T06:25:43;101657.59;;;2.47;100.00
17260;BME280;8746;49.230;9.220;2022-11-11T06:28:42;101667.22;;;2.51;100.00
17260;BME280;8746;49.230;9.220;2022-11-11T06:31:09;101667.13;;;2.48;100.00
17260;BME280;8746;49.230;9.220;2022-11-11T06:33:36;101667.06;;;2.44;100.00
17260;BME280;8746;49.230;9.220;2022-11-11T06:36:03;101675.69;;;2.41;100.00
17260;BME280;8746;49.230;9.220;2022-11-11T06:38:29;101674.69;;;2.36;100.00
17260;BME280;8746;49.230;9.220;2022-11-11T06:40:54;101675.59;;;2.36;100.00
17260;BME280;8746;49.230;9.220;2022-11-11T06:43:20;101673.88;;;2.38;100.00
17260;BME280;8746;49.230;9.220;2022-11-11T06:45:50;101677.50;;;2.44;100.00
17260;BME280;8746;49.230;9.220;2022-11-11T06:48:16;101675.50;;;2.32;100.00
17260;BME280;8746;49.230;9.220;2022-11-11T06:50:41;101674.69;;;2.36;100.00
17260;BME280;8746;49.230;9.220;2022-11-11T06:53:12;101682.50;;;2.34;100.00
17260;BME280;8746;49.230;9.220;2022-11-11T06:55:38;101679.84;;;2.33;100.00
17260;BME280;8746;49.230;9.220;2022-11-11T06:58:14;101677.38;;;2.39;100.00
17260;BME280;8746;49.230;9.220;2022-11-11T07:00:41;101677.53;;;2.47;100.00
17260;BME280;8746;49.230;9.220;2022-11-11T07:03:09;101677.03;;;2.63;100.00
17260;BME280;8746;49.230;9.220;2022-11-11T07:05:35;101682.31;;;2.68;100.00
17260;BME280;8746;49.230;9.220;2022-11-11T07:08:05;101680.72;;;2.75;100.00
17260;BME280;8746;49.230;9.220;2022-11-11T07:10:32;101681.69;;;2.80;100.00
17260;BME280;8746;49.230;9.220;2022-11-11T07:12:58;101685.84;;;2.71;100.00
17260;BME280;8746;49.230;9.220;2022-11-11T07:15:23;101688.47;;;2.71;100.00
17260;BME280;8746;49.230;9.220;2022-11-11T07:17:49;101691.03;;;2.70;100.00
17260;BME280;8746;49.230;9.220;2022-11-11T07:20:14;101687.84;;;2.85;100.00
17260;BME280;8746;49.230;9.220;2022-11-11T07:22:40;101694.72;;;2.81;100.00
17260;BME280;8746;49.230;9.220;2022-11-11T07:25:05;101692.06;;;2.77;100.00
17260;BME280;8746;49.230;9.220;2022-11-11T07:27:31;101691.25;;;2.81;100.00
17260;BME280;8746;49.230;9.220;2022-11-11T07:29:56;101694.66;;;2.77;100.00
17260;BME280;8746;49.230;9.220;2022-11-11T07:32:22;101692.88;;;2.74;100.00
17260;BME280;8746;49.230;9.220;2022-11-11T07:34:47;101707.44;;;2.64;100.00
17260;BME280;8746;49.230;9.220;2022-11-11T07:37:14;101709.41;;;2.76;100.00
17260;BME280;8746;49.230;9.220;2022-11-11T07:39:40;101708.63;;;2.80;100.00
17260;BME280;8746;49.230;9.220;2022-11-11T07:42:05;101709.63;;;2.87;100.00
17260;BME280;8746;49.230;9.220;2022-11-11T07:44:30;101701.94;;;2.93;100.00
17260;BME280;8746;49.230;9.220;2022-11-11T07:46:56;101700.25;;;2.97;100.00
17260;BME280;8746;49.230;9.220;2022-11-11T07:49:21;101704.50;;;2.90;100.00
17260;BME280;8746;49.230;9.220;2022-11-11T07:51:46;101699.53;;;3.04;100.00
17260;BME280;8746;49.230;9.220;2022-11-11T07:54:12;101698.94;;;3.19;100.00
17260;BME280;8746;49.230;9.220;2022-11-11T07:56:37;101704.34;;;3.28;100.00
17260;BME280;8746;49.230;9.220;2022-11-11T07:59:03;101706.97;;;3.31;100.00
17260;BME280;8746;49.230;9.220;2022-11-11T08:01:28;101713.91;;;3.29;100.00
17260;BME280;8746;49.230;9.220;2022-11-11T08:03:54;101712.41;;;3.44;100.00
17260;BME280;8746;49.230;9.220;2022-11-11T08:06:20;101717.72;;;3.48;100.00
17260;BME280;8746;49.230;9.220;2022-11-11T08:08:46;101716.09;;;3.55;100.00
17260;BME280;8746;49.230;9.220;2022-11-11T08:11:12;101721.13;;;3.43;100.00
17260;BME280;8746;49.230;9.220;2022-11-11T08:13:38;101729.00;;;3.47;100.00
17260;BME280;8746;49.230;9.220;2022-11-11T08:16:08;101730.31;;;3.22;100.00
17260;BME280;8746;49.230;9.220;2022-11-11T08:18:34;101728.47;;;3.18;100.00
17260;BME280;8746;49.230;9.220;2022-11-11T08:21:00;101731.59;;;3.47;100.00
17260;BME280;8746;49.230;9.220;2022-11-11T08:23:26;101733.47;;;3.53;100.00
17260;BME280;8746;49.230;9.220;2022-11-11T08:26:01;101722.19;;;3.54;100.00
17260;BME280;8746;49.230;9.220;2022-11-11T08:28:29;101719.78;;;3.68;100.00
17260;BME280;8746;49.230;9.220;2022-11-11T08:30:57;101721.44;;;3.61;100.00
17260;BME280;8746;49.230;9.220;2022-11-11T08:33:24;101714.66;;;3.73;100.00
17260;BME280;8746;49.230;9.220;2022-11-11T08:35:51;101722.00;;;3.95;100.00
17260;BME280;8746;49.230;9.220;2022-11-11T08:38:20;101720.09;;;3.87;100.00
17260;BME280;8746;49.230;9.220;2022-11-11T08:40:47;101714.63;;;3.69;100.00
17260;BME280;8746;49.230;9.220;2022-11-11T08:43:13;101718.47;;;3.93;100.00
17260;BME280;8746;49.230;9.220;2022-11-11T08:45:38;101717.75;;;4.04;100.00
17260;BME280;8746;49.230;9.220;2022-11-11T08:48:06;101708.22;;;4.07;100.00
17260;BME280;8746;49.230;9.220;2022-11-11T08:50:34;101704.09;;;4.22;100.00
17260;BME280;8746;49.230;9.220;2022-11-11T08:53:00;101702.78;;;4.53;100.00
17260;BME280;8746;49.230;9.220;2022-11-11T08:55:25;101693.66;;;4.94;100.00
17260;BME280;8746;49.230;9.220;2022-11-11T08:58:09;101702.63;;;5.16;100.00
17260;BME280;8746;49.230;9.220;2022-11-11T09:00:35;101697.44;;;5.19;100.00
17260;BME280;8746;49.230;9.220;2022-11-11T09:03:03;101695.09;;;5.49;100.00
17260;BME280;8746;49.230;9.220;2022-11-11T09:05:29;101695.03;;;5.42;99.66
17260;BME280;8746;49.230;9.220;2022-11-11T09:07:55;101700.00;;;5.16;100.00
17260;BME280;8746;49.230;9.220;2022-11-11T09:10:20;101702.66;;;5.19;100.00
17260;BME280;8746;49.230;9.220;2022-11-11T09:12:46;101700.22;;;5.39;100.00
17260;BME280;8746;49.230;9.220;2022-11-11T09:15:11;101694.09;;;5.36;100.00
17260;BME280;8746;49.230;9.220;2022-11-11T09:17:37;101688.03;;;5.40;100.00
17260;BME280;8746;49.230;9.220;2022-11-11T09:20:03;101690.50;;;5.21;100.00
17260;BME280;8746;49.230;9.220;2022-11-11T09:22:28;101692.03;;;5.02;100.00
17260;BME280;8746;49.230;9.220;2022-11-11T09:24:54;101693.72;;;4.95;100.00
17260;BME280;8746;49.230;9.220;2022-11-11T09:27:20;101702.63;;;5.16;100.00
17260;BME280;8746;49.230;9.220;2022-11-11T09:29:46;101697.31;;;5.07;100.00
17260;BME280;8746;49.230;9.220;2022-11-11T09:32:11;101698.41;;;5.27;100.00
17260;BME280;8746;49.230;9.220;2022-11-11T09:34:37;101702.69;;;5.22;100.00
17260;BME280;8746;49.230;9.220;2022-11-11T09:37:02;101697.72;;;5.47;100.00
17260;BME280;8746;49.230;9.220;2022-11-11T09:39:27;101702.91;;;5.45;100.00
17260;BME280;8746;49.230;9.220;2022-11-11T09:42:12;101697.91;;;5.75;100.00
17260;BME280;8746;49.230;9.220;2022-11-11T09:47:38;101710.94;;;5.64;100.00
17260;BME280;8746;49.230;9.220;2022-11-11T09:50:17;101705.16;;;6.01;100.00
17260;BME280;8746;49.230;9.220;2022-11-11T09:55:36;101712.44;;;6.53;97.75
17260;BME280;8746;49.230;9.220;2022-11-11T09:58:11;101715.06;;;6.51;97.47
17260;BME280;8746;49.230;9.220;2022-11-11T10:00:41;101715.22;;;6.90;94.66
17260;BME280;8746;49.230;9.220;2022-11-11T10:03:25;101703.91;;;7.03;95.19
17260;BME280;8746;49.230;9.220;2022-11-11T10:08:26;101706.59;;;7.41;92.47
17260;BME280;8746;49.230;9.220;2022-11-11T10:10:53;101701.31;;;8.10;90.86
17260;BME280;8746;49.230;9.220;2022-11-11T10:13:28;101694.13;;;8.74;88.02
17260;BME280;8746;49.230;9.220;2022-11-11T10:16:03;101695.84;;;8.83;86.87
17260;BME280;8746;49.230;9.220;2022-11-11T10:21:14;101696.56;;;9.18;86.23
17260;BME280;8746;49.230;9.220;2022-11-11T10:23:42;101690.84;;;9.75;83.46
17260;BME280;8746;49.230;9.220;2022-11-11T10:26:24;101689.19;;;9.61;83.85
17260;BME280;8746;49.230;9.220;2022-11-11T10:28:52;101678.88;;;9.35;84.91
17260;BME280;8746;49.230;9.220;2022-11-11T10:31:21;101670.19;;;9.24;86.89
17260;BME280;8746;49.230;9.220;2022-11-11T10:33:52;101672.66;;;9.42;85.51
17260;BME280;8746;49.230;9.220;2022-11-11T10:36:21;101664.59;;;9.64;85.28
17260;BME280;8746;49.230;9.220;2022-11-11T10:39:02;101659.13;;;9.87;82.15
17260;BME280;8746;49.230;9.220;2022-11-11T10:43:54;101651.53;;;10.40;80.61
17260;BME280;8746;49.230;9.220;2022-11-11T10:46:26;101654.97;;;10.46;81.20
17260;BME280;8746;49.230;9.220;2022-11-11T10:49:06;101647.25;;;10.27;81.86
17260;BME280;8746;49.230;9.220;2022-11-11T10:51:45;101646.84;;;9.83;82.99
17260;BME280;8746;49.230;9.220;2022-11-11T10:54:24;101647.81;;;9.74;82.62
17260;BME280;8746;49.230;9.220;2022-11-11T10:59:23;101651.72;;;9.22;85.95
17260;BME280;8746;49.230;9.220;2022-11-11T11:04:34;101637.84;;;8.98;87.14
17260;BME280;8746;49.230;9.220;2022-11-11T11:07:04;101642.28;;;8.95;87.23
17260;BME280;8746;49.230;9.220;2022-11-11T11:09:44;101633.47;;;9.01;88.80
17260;BME280;8746;49.230;9.220;2022-11-11T11:12:28;101633.41;;;9.05;88.75
17260;BME280;8746;49.230;9.220;2022-11-11T11:15:01;101629.78;;;9.25;89.23
17260;BME280;8746;49.230;9.220;2022-11-11T11:17:34;101634.09;;;9.35;88.81
17260;BME280;8746;49.230;9.220;2022-11-11T11:20:11;101627.91;;;9.39;87.50
17260;BME280;8746;49.230;9.220;2022-11-11T11:22:56;101637.75;;;9.16;88.57
17260;BME280;8746;49.230;9.220;2022-11-11T11:25:25;101632.25;;;9.42;88.21
17260;BME280;8746;49.230;9.220;2022-11-11T11:28:13;101626.13;;;9.44;88.46
17260;BME280;8746;49.230;9.220;2022-11-11T11:30:38;101630.66;;;9.22;88.93
17260;BME280;8746;49.230;9.220;2022-11-11T11:33:06;101632.34;;;9.34;89.57
17260;BME280;8746;49.230;9.220;2022-11-11T11:35:40;101641.16;;;9.28;90.12
17260;BME280;8746;49.230;9.220;2022-11-11T11:38:08;101643.81;;;9.27;89.78
17260;BME280;8746;49.230;9.220;2022-11-11T11:43:36;101641.13;;;9.35;90.49
17260;BME280;8746;49.230;9.220;2022-11-11T11:46:13;101648.94;;;9.44;90.08
17260;BME280;8746;49.230;9.220;2022-11-11T11:54:16;101635.06;;;10.15;86.44
17260;BME280;8746;49.230;9.220;2022-11-11T11:57:24;101624.78;;;9.90;87.68
17260;BME280;8746;49.230;9.220;2022-11-11T12:00:05;101617.78;;;9.91;89.95
17260;BME280;8746;49.230;9.220;2022-11-11T12:06:03;101616.97;;;9.83;89.38
17260;BME280;8746;49.230;9.220;2022-11-11T12:08:36;101624.09;;;9.71;89.52
17260;BME280;8746;49.230;9.220;2022-11-11T12:16:37;101622.31;;;9.76;90.60
17260;BME280;8746;49.230;9.220;2022-11-11T12:24:49;101609.81;;;9.94;90.66
17260;BME280;8746;49.230;9.220;2022-11-11T12:27:26;101616.13;;;9.79;91.12
17260;BME280;8746;49.230;9.220;2022-11-11T12:30:06;101621.44;;;9.74;91.07
17260;BME280;8746;49.230;9.220;2022-11-11T12:35:36;101608.28;;;9.74;92.25
17260;BME280;8746;49.230;9.220;2022-11-11T12:38:35;101608.28;;;9.74;92.53
17260;BME280;8746;49.230;9.220;2022-11-11T12:54:50;101585.88;;;10.13;91.61
17260;BME280;8746;49.230;9.220;2022-11-11T12:57:37;101593.72;;;10.19;90.79
17260;BME280;8746;49.230;9.220;2022-11-11T13:00:18;101595.59;;;10.10;91.53
17260;BME280;8746;49.230;9.220;2022-11-11T13:16:00;101568.09;;;10.29;90.81
17260;BME280;8746;49.230;9.220;2022-11-11T13:19:03;101565.41;;;10.33;90.79
17260;BME280;8746;49.230;9.220;2022-11-11T13:21:56;101566.13;;;10.48;90.57
17260;BME280;8746;49.230;9.220;2022-11-11T13:24:25;101576.75;;;10.41;91.04
17260;BME280;8746;49.230;9.220;2022-11-11T13:27:03;101574.06;;;10.45;92.10
17260;BME280;8746;49.230;9.220;2022-11-11T13:29:48;101568.56;;;10.63;91.92
17260;BME280;8746;49.230;9.220;2022-11-11T13:32:24;101572.19;;;10.56;92.84
17260;BME280;8746;49.230;9.220;2022-11-11T13:34:53;101573.22;;;10.41;94.42
17260;BME280;8746;49.230;9.220;2022-11-11T13:37:24;101567.09;;;10.40;94.57
17260;BME280;8746;49.230;9.220;2022-11-11T13:39:57;101574.19;;;10.37;95.27
17260;BME280;8746;49.230;9.220;2022-11-11T13:42:27;101577.69;;;10.37;95.37
17260;BME280;8746;49.230;9.220;2022-11-11T13:44:58;101570.69;;;10.33;95.39
17260;BME280;8746;49.230;9.220;2022-11-11T13:47:32;101578.59;;;10.36;94.82
17260;BME280;8746;49.230;9.220;2022-11-11T13:50:11;101566.94;;;10.53;94.02
17260;BME280;8746;49.230;9.220;2022-11-11T13:52:51;101580.19;;;10.50;94.23
17260;BME280;8746;49.230;9.220;2022-11-11T13:55:35;101576.72;;;10.45;93.95
17260;BME280;8746;49.230;9.220;2022-11-11T13:58:03;101576.81;;;10.37;94.50
17260;BME280;8746;49.230;9.220;2022-11-11T14:00:33;101577.81;;;10.25;95.02
17260;BME280;8746;49.230;9.220;2022-11-11T14:05:37;101581.38;;;10.21;95.43
17260;BME280;8746;49.230;9.220;2022-11-11T14:08:03;101580.44;;;10.26;95.40
17260;BME280;8746;49.230;9.220;2022-11-11T14:15:48;101572.44;;;10.34;95.33
17260;BME280;8746;49.230;9.220;2022-11-11T14:20:47;101576.03;;;10.27;96.66
17260;BME280;8746;49.230;9.220;2022-11-11T14:23:35;101571.63;;;10.27;96.25
17260;BME280;8746;49.230;9.220;2022-11-11T14:33:50;101571.56;;;10.32;97.76
17260;BME280;8746;49.230;9.220;2022-11-11T14:41:44;101575.25;;;10.19;98.80
17260;BME280;8746;49.230;9.220;2022-11-11T14:47:22;101570.81;;;10.24;98.73
17260;BME280;8746;49.230;9.220;2022-11-11T14:49:53;101575.13;;;10.30;98.18
17260;BME280;8746;49.230;9.220;2022-11-11T14:54:53;101572.75;;;10.09;98.93
17260;BME280;8746;49.230;9.220;2022-11-11T14:57:23;101577.13;;;10.10;99.48
17260;BME280;8746;49.230;9.220;2022-11-11T14:59:50;101569.25;;;10.04;99.70
17260;BME280;8746;49.230;9.220;2022-11-11T15:02:53;101578.19;;;9.94;100.00
17260;BME280;8746;49.230;9.220;2022-11-11T15:05:30;101571.22;;;9.90;100.00
17260;BME280;8746;49.230;9.220;2022-11-11T15:11:05;101574.00;;;9.74;100.00
17260;BME280;8746;49.230;9.220;2022-11-11T15:30:59;101560.47;;;9.20;100.00
17260;BME280;8746;49.230;9.220;2022-11-11T15:33:53;101569.31;;;9.14;100.00
17260;BME280;8746;49.230;9.220;2022-11-11T15:38:58;101566.72;;;9.06;100.00